Time;durP1;ratioP1;P1;durP2;ratioP2;P2;SDS_P1;SDS_P2;PMS_P1;PMS_P2;Temp;Humidity;BMP_temperature;BMP_pressure;BME280_temperature;BME280_humidity;BME280_pressure;Samples;Min_cycle;Max_cycle;Signal;HPM_P1;HPM_P2
2021/04/03 00:02:20;;;;;;;7.78;4.07;;;;;;;;;;5040786;28;20487;-87
2021/04/03 00:04:47;;;;;;;4.57;4.13;;;;;;;;;;5046941;28;20186;-84
2021/04/03 00:07:12;;;;;;;7.72;4.88;;;;;;;;;;5030641;28;20221;-83
2021/04/03 00:09:39;;;;;;;6.60;4.72;;;;;;;;;;5030224;28;20192;-82
2021/04/03 00:12:05;;;;;;;7.32;4.80;;;;;;;;;;5054442;28;20245;-83
2021/04/03 00:14:31;;;;;;;5.57;3.35;;;;;;;;;;5038979;28;20189;-84
2021/04/03 00:16:57;;;;;;;8.98;3.95;;;;;;;;;;5038463;28;20174;-83
2021/04/03 00:19:23;;;;;;;14.18;5.85;;;;;;;;;;5031036;28;20205;-82
2021/04/03 00:21:49;;;;;;;5.70;4.47;;;;;;;;;;5047539;28;20213;-87
2021/04/03 00:24:15;;;;;;;6.90;3.70;;;;;;;;;;5053290;28;20186;-86
2021/04/03 00:26:41;;;;;;;4.38;3.40;;;;;;;;;;5044903;28;20261;-83
2021/04/03 00:29:10;;;;;;;6.35;4.28;;;;;;;;;;5038353;28;20182;-87
2021/04/03 00:31:36;;;;;;;6.82;4.40;;;;;;;;;;5045268;28;20182;-86
2021/04/03 00:34:02;;;;;;;6.40;3.80;;;;;;;;;;5032914;28;20182;-82
2021/04/03 00:36:29;;;;;;;4.05;3.60;;;;;;;;;;5041291;28;20186;-86
2021/04/03 00:38:55;;;;;;;6.90;4.88;;;;;;;;;;5041817;28;20187;-84
2021/04/03 00:41:24;;;;;;;4.35;3.95;;;;;;;;;;5050970;28;20198;-87
2021/04/03 00:43:50;;;;;;;5.25;4.35;;;;;;;;;;5035721;28;20225;-89
2021/04/03 00:46:16;;;;;;;8.02;4.72;;;;;;;;;;5045386;28;20206;-87
2021/04/03 00:48:42;;;;;;;4.22;3.83;;;;;;;;;;5039413;28;20185;-85
2021/04/03 00:51:09;;;;;;;7.90;4.95;;;;;;;;;;5054990;28;20186;-85
2021/04/03 00:53:35;;;;;;;4.72;4.03;;;;;;;;;;5045693;28;20204;-82
2021/04/03 00:56:05;;;;;;;5.07;4.20;;;;;;;;;;5052072;28;20220;-84
2021/04/03 00:58:31;;;;;;;5.20;3.95;;;;;;;;;;5043862;28;20277;-82
2021/04/03 01:00:57;;;;;;;6.00;5.38;;;;;;;;;;5052285;28;20182;-88
2021/04/03 01:03:26;;;;;;;7.63;4.55;;;;;;;;;;5054040;28;20178;-86
2021/04/03 01:05:52;;;;;;;8.23;5.80;;;;;;;;;;5040945;28;20178;-87
2021/04/03 01:08:19;;;;;;;9.73;6.15;;;;;;;;;;5050936;28;20217;-83
2021/04/03 01:10:48;;;;;;;8.00;4.80;;;;;;;;;;5039754;28;20647;-85
2021/04/03 01:13:18;;;;;;;12.13;6.22;;;;;;;;;;5049954;28;20208;-83
2021/04/03 01:15:48;;;;;;;6.97;6.28;;;;;;;;;;5029016;28;20522;-82
2021/04/03 01:18:17;;;;;;;5.93;4.20;;;;;;;;;;5053834;28;20185;-85
2021/04/03 01:20:46;;;;;;;7.10;6.00;;;;;;;;;;5026333;28;20181;-85
2021/04/03 01:23:24;;;;;;;8.07;5.70;;;;;;;;;;5028868;28;20177;-86
2021/04/03 01:26:11;;;;;;;7.07;4.30;;;;;;;;;;5049391;28;20185;-82
2021/04/03 01:28:56;;;;;;;7.63;5.80;;;;;;;;;;5035395;28;20217;-84
2021/04/03 01:31:22;;;;;;;7.47;5.80;;;;;;;;;;5034238;28;20201;-82
2021/04/03 01:33:50;;;;;;;8.50;5.35;;;;;;;;;;5038125;28;20208;-84
2021/04/03 01:36:21;;;;;;;9.43;6.10;;;;;;;;;;5052511;28;20684;-84
2021/04/03 01:38:56;;;;;;;9.65;6.22;;;;;;;;;;5042964;28;20193;-82
2021/04/03 01:41:24;;;;;;;10.40;5.22;;;;;;;;;;5027804;28;20193;-83
2021/04/03 01:43:51;;;;;;;5.95;5.35;;;;;;;;;;5029063;28;20249;-83
2021/04/03 01:46:18;;;;;;;8.30;6.47;;;;;;;;;;5028344;28;20218;-85
2021/04/03 01:48:44;;;;;;;7.57;6.07;;;;;;;;;;5045859;28;20185;-85
2021/04/03 01:51:11;;;;;;;6.05;4.82;;;;;;;;;;5052674;28;20179;-85
2021/04/03 01:53:38;;;;;;;7.57;5.03;;;;;;;;;;5043641;28;20177;-83
2021/04/03 01:56:05;;;;;;;6.30;4.80;;;;;;;;;;5038713;28;20182;-86
2021/04/03 01:58:32;;;;;;;8.15;4.45;;;;;;;;;;5035543;28;20190;-84
2021/04/03 02:00:59;;;;;;;5.00;4.00;;;;;;;;;;5038186;28;20286;-82
2021/04/03 02:03:25;;;;;;;5.93;5.32;;;;;;;;;;5039832;28;20201;-85
2021/04/03 02:05:51;;;;;;;5.75;5.25;;;;;;;;;;5040519;28;20423;-87
2021/04/03 02:08:18;;;;;;;6.35;4.80;;;;;;;;;;5038595;28;20334;-87
2021/04/03 02:10:45;;;;;;;6.00;4.85;;;;;;;;;;5035487;28;20182;-83
2021/04/03 02:13:11;;;;;;;5.70;4.40;;;;;;;;;;5046987;28;20190;-85
2021/04/03 02:15:37;;;;;;;6.55;3.97;;;;;;;;;;5039125;28;20189;-88
2021/04/03 02:18:07;;;;;;;10.77;5.60;;;;;;;;;;5049326;28;20205;-86
2021/04/03 02:20:33;;;;;;;10.73;4.63;;;;;;;;;;5026513;28;20247;-82
2021/04/03 02:23:00;;;;;;;4.95;4.43;;;;;;;;;;5033240;28;20264;-86
2021/04/03 02:25:26;;;;;;;6.78;3.92;;;;;;;;;;5051445;28;20205;-86
2021/04/03 02:27:55;;;;;;;6.50;4.10;;;;;;;;;;5055079;28;20202;-86
2021/04/03 02:30:23;;;;;;;6.40;4.35;;;;;;;;;;5051704;28;20217;-82
2021/04/03 02:32:56;;;;;;;8.15;4.80;;;;;;;;;;5040517;28;20182;-86
2021/04/03 02:35:23;;;;;;;5.65;4.63;;;;;;;;;;5052387;28;20181;-86
2021/04/03 02:37:52;;;;;;;7.20;4.57;;;;;;;;;;5050085;28;20269;-86
2021/04/03 02:40:20;;;;;;;6.13;4.10;;;;;;;;;;5037855;28;20193;-87
2021/04/03 02:42:52;;;;;;;7.78;4.82;;;;;;;;;;5037264;28;20186;-86
2021/04/03 02:45:19;;;;;;;5.95;4.38;;;;;;;;;;5055369;28;20277;-81
2021/04/03 02:47:47;;;;;;;6.85;4.10;;;;;;;;;;5041541;28;20198;-86
2021/04/03 02:50:22;;;;;;;6.03;4.90;;;;;;;;;;5048970;28;20174;-85
2021/04/03 02:52:52;;;;;;;13.73;4.60;;;;;;;;;;5033743;28;20268;-82
2021/04/03 02:55:19;;;;;;;7.25;4.05;;;;;;;;;;5045768;28;20178;-87
2021/04/03 02:57:46;;;;;;;7.95;4.95;;;;;;;;;;5037855;28;20212;-82
2021/04/03 03:00:13;;;;;;;11.40;5.53;;;;;;;;;;5051784;28;20182;-86
2021/04/03 03:02:39;;;;;;;8.18;4.10;;;;;;;;;;5042309;28;20209;-85
2021/04/03 03:05:06;;;;;;;6.50;4.25;;;;;;;;;;5047816;28;20202;-86
2021/04/03 03:07:33;;;;;;;11.40;4.57;;;;;;;;;;5035569;28;20244;-85
2021/04/03 03:09:59;;;;;;;6.55;4.15;;;;;;;;;;5038817;28;20178;-88
2021/04/03 03:12:26;;;;;;;9.90;4.18;;;;;;;;;;5038921;28;20270;-85
2021/04/03 03:14:53;;;;;;;7.85;4.80;;;;;;;;;;5025084;28;20194;-88
2021/04/03 03:17:19;;;;;;;6.72;4.28;;;;;;;;;;5049125;28;20167;-85
2021/04/03 03:19:45;;;;;;;5.65;4.82;;;;;;;;;;5033790;28;20285;-84
2021/04/03 03:22:11;;;;;;;6.72;4.30;;;;;;;;;;5029150;28;20218;-84
2021/04/03 03:24:38;;;;;;;5.88;3.92;;;;;;;;;;5028396;28;20201;-82
2021/04/03 03:27:05;;;;;;;4.43;4.03;;;;;;;;;;5034905;28;20261;-83
2021/04/03 03:29:32;;;;;;;9.65;5.78;;;;;;;;;;5048076;28;20166;-82
2021/04/03 03:31:59;;;;;;;5.53;4.90;;;;;;;;;;5053939;28;20204;-87
2021/04/03 03:34:25;;;;;;;7.32;4.75;;;;;;;;;;5040914;28;20190;-84
2021/04/03 03:36:51;;;;;;;7.25;4.70;;;;;;;;;;5056055;28;20213;-82
2021/04/03 03:39:17;;;;;;;6.85;5.53;;;;;;;;;;5059047;28;20192;-88
2021/04/03 03:41:44;;;;;;;7.78;5.43;;;;;;;;;;5035760;28;20210;-83
2021/04/03 03:44:10;;;;;;;12.25;4.68;;;;;;;;;;5031231;28;20214;-87
2021/04/03 03:46:36;;;;;;;8.77;5.30;;;;;;;;;;5050224;28;20198;-86
2021/04/03 03:49:02;;;;;;;12.85;5.30;;;;;;;;;;5031767;28;20186;-85
2021/04/03 03:51:29;;;;;;;6.70;4.60;;;;;;;;;;5057658;28;20667;-85
2021/04/03 03:53:55;;;;;;;6.30;4.88;;;;;;;;;;5038449;28;20548;-82
2021/04/03 03:56:22;;;;;;;7.97;4.97;;;;;;;;;;5042943;28;20178;-89
2021/04/03 03:58:48;;;;;;;7.10;4.95;;;;;;;;;;5049566;28;20190;-87
2021/04/03 04:01:14;;;;;;;10.65;5.78;;;;;;;;;;5031577;28;20635;-87
2021/04/03 04:03:40;;;;;;;10.55;6.32;;;;;;;;;;5031541;28;20241;-82
2021/04/03 04:06:06;;;;;;;5.40;3.70;;;;;;;;;;5038526;28;20182;-83
2021/04/03 04:08:32;;;;;;;7.25;5.15;;;;;;;;;;5040463;28;20423;-84
2021/04/03 04:10:58;;;;;;;7.07;5.05;;;;;;;;;;5053060;28;20170;-84
2021/04/03 04:13:24;;;;;;;8.18;4.90;;;;;;;;;;5041387;28;20211;-85
2021/04/03 04:15:52;;;;;;;9.53;5.00;;;;;;;;;;5038141;28;20607;-86
2021/04/03 04:18:18;;;;;;;8.77;5.07;;;;;;;;;;5055523;28;20437;-85
2021/04/03 04:20:44;;;;;;;7.25;5.85;;;;;;;;;;5045720;28;20173;-86
2021/04/03 04:23:10;;;;;;;6.40;4.90;;;;;;;;;;5030658;28;20171;-85
2021/04/03 04:25:36;;;;;;;6.20;4.85;;;;;;;;;;5046721;28;20249;-87
2021/04/03 04:28:02;;;;;;;8.25;4.78;;;;;;;;;;5031267;28;20257;-86
2021/04/03 04:30:28;;;;;;;5.47;4.68;;;;;;;;;;5056212;28;20714;-86
2021/04/03 04:32:54;;;;;;;8.00;4.80;;;;;;;;;;5031483;28;20182;-84
2021/04/03 04:35:20;;;;;;;6.63;4.50;;;;;;;;;;5031058;28;20197;-80
2021/04/03 04:37:46;;;;;;;9.30;4.70;;;;;;;;;;5035452;28;20232;-86
2021/04/03 04:40:13;;;;;;;9.85;6.05;;;;;;;;;;5040437;28;20433;-84
2021/04/03 04:42:40;;;;;;;5.45;4.68;;;;;;;;;;5041295;28;20182;-85
2021/04/03 04:45:07;;;;;;;7.00;4.50;;;;;;;;;;5037378;28;20274;-82
2021/04/03 04:47:33;;;;;;;7.13;4.60;;;;;;;;;;5046491;28;20276;-86
2021/04/03 04:49:59;;;;;;;6.30;4.05;;;;;;;;;;5056103;28;20190;-82
2021/04/03 04:52:25;;;;;;;9.32;4.93;;;;;;;;;;5042382;28;20264;-85
2021/04/03 04:54:51;;;;;;;10.80;4.10;;;;;;;;;;5043791;28;20512;-83
2021/04/03 04:57:17;;;;;;;10.63;4.47;;;;;;;;;;5040591;28;20217;-84
2021/04/03 04:59:43;;;;;;;10.60;4.68;;;;;;;;;;5043901;28;20432;-84
2021/04/03 05:02:09;;;;;;;6.18;4.95;;;;;;;;;;5029792;28;20182;-83
2021/04/03 05:04:35;;;;;;;7.15;5.47;;;;;;;;;;5030206;28;20201;-84
2021/04/03 05:07:01;;;;;;;7.43;4.82;;;;;;;;;;5029843;28;20210;-84
2021/04/03 05:09:27;;;;;;;7.63;4.93;;;;;;;;;;5029763;28;20193;-84
2021/04/03 05:11:53;;;;;;;12.70;5.97;;;;;;;;;;5041827;28;20186;-84
2021/04/03 05:14:19;;;;;;;7.07;5.00;;;;;;;;;;5053922;28;20474;-83
2021/04/03 05:16:45;;;;;;;9.40;4.67;;;;;;;;;;5035787;28;20558;-84
2021/04/03 05:19:11;;;;;;;10.18;5.00;;;;;;;;;;5035634;28;20444;-85
2021/04/03 05:21:37;;;;;;;11.98;5.50;;;;;;;;;;5040751;28;20186;-84
2021/04/03 05:24:03;;;;;;;8.15;4.95;;;;;;;;;;5026107;28;20229;-83
2021/04/03 05:26:29;;;;;;;10.00;5.13;;;;;;;;;;5047232;28;20227;-82
2021/04/03 05:28:55;;;;;;;6.40;5.03;;;;;;;;;;5030066;28;20249;-83
2021/04/03 05:31:21;;;;;;;6.03;4.60;;;;;;;;;;5044732;28;20229;-83
2021/04/03 05:33:48;;;;;;;10.50;5.10;;;;;;;;;;5029758;28;20173;-83
2021/04/03 05:36:14;;;;;;;6.20;4.53;;;;;;;;;;5053337;28;20242;-86
2021/04/03 05:38:40;;;;;;;7.72;4.53;;;;;;;;;;5027226;28;20179;-85
2021/04/03 05:41:06;;;;;;;6.80;5.00;;;;;;;;;;5029485;28;20318;-85
2021/04/03 05:43:33;;;;;;;7.72;5.47;;;;;;;;;;5033960;28;20297;-84
2021/04/03 05:45:59;;;;;;;7.15;5.30;;;;;;;;;;5031839;28;20604;-84
2021/04/03 05:48:25;;;;;;;7.57;4.80;;;;;;;;;;5039118;28;20185;-83
2021/04/03 05:50:53;;;;;;;8.63;4.95;;;;;;;;;;5041697;28;20185;-85
2021/04/03 05:53:20;;;;;;;7.53;4.63;;;;;;;;;;5041989;28;20181;-85
2021/04/03 05:55:46;;;;;;;11.68;4.95;;;;;;;;;;5038995;28;20181;-85
2021/04/03 05:58:13;;;;;;;9.10;5.15;;;;;;;;;;5035176;28;20254;-82
2021/04/03 06:00:39;;;;;;;7.97;4.18;;;;;;;;;;5044509;28;20182;-84
2021/04/03 06:03:05;;;;;;;9.18;5.03;;;;;;;;;;5054919;28;20268;-84
2021/04/03 06:05:31;;;;;;;12.23;5.00;;;;;;;;;;5046506;28;20201;-82
2021/04/03 06:07:57;;;;;;;7.75;4.60;;;;;;;;;;5047680;28;20218;-79
2021/04/03 06:10:23;;;;;;;6.53;4.17;;;;;;;;;;5034400;28;20189;-81
2021/04/03 06:12:50;;;;;;;5.05;3.95;;;;;;;;;;5038071;28;20447;-83
2021/04/03 06:15:34;;;;;;;12.40;5.28;;;;;;;;;;5037229;28;20186;-85
2021/04/03 06:18:00;;;;;;;10.25;4.25;;;;;;;;;;5035415;28;20228;-82
2021/04/03 06:20:37;;;;;;;7.95;3.80;;;;;;;;;;5043870;28;20205;-83
2021/04/03 06:23:04;;;;;;;11.93;6.20;;;;;;;;;;5039343;28;20231;-82
2021/04/03 06:25:30;;;;;;;6.72;3.72;;;;;;;;;;5036525;28;20202;-81
2021/04/03 06:28:09;;;;;;;6.07;4.50;;;;;;;;;;5035728;28;20205;-81
2021/04/03 06:30:35;;;;;;;7.07;3.63;;;;;;;;;;5039929;28;20249;-84
2021/04/03 06:33:19;;;;;;;7.97;4.10;;;;;;;;;;5036814;28;20265;-83
2021/04/03 06:35:45;;;;;;;6.32;4.60;;;;;;;;;;5039058;28;20193;-85
2021/04/03 06:38:22;;;;;;;8.15;4.55;;;;;;;;;;5041216;28;20210;-87
2021/04/03 06:40:48;;;;;;;12.02;4.80;;;;;;;;;;5038010;28;20189;-82
2021/04/03 06:43:15;;;;;;;10.30;4.50;;;;;;;;;;5054101;28;20287;-85
2021/04/03 06:45:44;;;;;;;9.05;4.10;;;;;;;;;;5054335;28;20189;-82
2021/04/03 06:48:10;;;;;;;6.82;3.75;;;;;;;;;;5056322;28;20374;-80
2021/04/03 06:50:41;;;;;;;12.60;5.35;;;;;;;;;;5040855;28;20785;-85
2021/04/03 06:53:11;;;;;;;11.93;5.43;;;;;;;;;;5041022;28;20169;-83
2021/04/03 06:55:37;;;;;;;12.35;5.70;;;;;;;;;;5041358;28;20192;-86
2021/04/03 06:58:04;;;;;;;16.75;7.20;;;;;;;;;;5048813;28;20216;-82
2021/04/03 07:00:33;;;;;;;8.65;5.40;;;;;;;;;;5041159;28;20192;-82
2021/04/03 07:03:00;;;;;;;12.02;5.70;;;;;;;;;;5050595;28;20178;-84
2021/04/03 07:05:31;;;;;;;8.25;4.70;;;;;;;;;;5046625;28;20245;-84
2021/04/03 07:07:58;;;;;;;11.52;5.60;;;;;;;;;;5060664;28;20201;-86
2021/04/03 07:10:24;;;;;;;11.20;5.97;;;;;;;;;;5045012;28;20192;-84
2021/04/03 07:12:51;;;;;;;14.40;5.55;;;;;;;;;;5043411;28;20185;-84
2021/04/03 07:15:17;;;;;;;11.23;5.70;;;;;;;;;;5053492;28;20189;-85
2021/04/03 07:17:44;;;;;;;11.90;5.22;;;;;;;;;;5044146;28;20185;-83
2021/04/03 07:20:14;;;;;;;7.55;4.47;;;;;;;;;;5043596;28;20181;-85
2021/04/03 07:22:42;;;;;;;11.40;5.25;;;;;;;;;;5039899;28;20186;-84
2021/04/03 07:25:09;;;;;;;8.60;5.20;;;;;;;;;;5042311;28;20704;-81
2021/04/03 07:27:37;;;;;;;13.10;5.70;;;;;;;;;;5042147;28;20251;-83
2021/04/03 07:30:04;;;;;;;10.48;4.93;;;;;;;;;;5043155;28;20231;-83
2021/04/03 07:32:34;;;;;;;10.48;4.82;;;;;;;;;;5046106;28;20181;-83
2021/04/03 07:35:00;;;;;;;7.55;4.93;;;;;;;;;;5042854;28;20336;-85
2021/04/03 07:37:33;;;;;;;9.57;5.90;;;;;;;;;;5049324;28;20220;-83
2021/04/03 07:39:59;;;;;;;12.38;5.78;;;;;;;;;;5054265;28;20185;-82
2021/04/03 07:42:33;;;;;;;9.57;5.43;;;;;;;;;;5057422;28;20193;-83
2021/04/03 07:44:59;;;;;;;11.98;5.45;;;;;;;;;;5058394;28;20221;-83
2021/04/03 07:47:26;;;;;;;8.95;5.88;;;;;;;;;;5045877;28;20192;-83
2021/04/03 07:49:53;;;;;;;12.50;6.53;;;;;;;;;;5048950;28;20209;-82
2021/04/03 07:52:39;;;;;;;8.40;5.43;;;;;;;;;;5048635;28;20249;-82
2021/04/03 07:55:31;;;;;;;10.18;5.28;;;;;;;;;;5037886;28;20249;-83
2021/04/03 07:58:16;;;;;;;11.57;5.78;;;;;;;;;;5039532;28;20196;-83
2021/04/03 08:00:43;;;;;;;9.30;5.18;;;;;;;;;;5035124;28;20216;-86
2021/04/03 08:03:09;;;;;;;10.65;4.88;;;;;;;;;;5059088;28;20217;-84
2021/04/03 08:05:35;;;;;;;8.15;5.07;;;;;;;;;;5044427;28;20176;-85
2021/04/03 08:08:01;;;;;;;15.32;6.13;;;;;;;;;;5033281;28;20229;-86
2021/04/03 08:10:27;;;;;;;7.90;5.28;;;;;;;;;;5047374;28;20177;-86
2021/04/03 08:12:55;;;;;;;10.13;4.75;;;;;;;;;;5046646;28;20221;-83
2021/04/03 08:15:22;;;;;;;13.23;5.30;;;;;;;;;;5029130;28;20205;-85
2021/04/03 08:17:54;;;;;;;11.60;5.35;;;;;;;;;;5042124;28;20208;-81
2021/04/03 08:20:20;;;;;;;7.28;4.85;;;;;;;;;;5054717;28;20716;-85
2021/04/03 08:23:06;;;;;;;7.25;5.03;;;;;;;;;;5048364;28;20186;-84
2021/04/03 08:25:32;;;;;;;14.05;5.43;;;;;;;;;;5039798;28;20185;-86
2021/04/03 08:27:59;;;;;;;11.13;6.10;;;;;;;;;;5038598;28;20206;-85
2021/04/03 08:30:32;;;;;;;11.45;4.93;;;;;;;;;;5040079;28;20181;-79
2021/04/03 08:33:03;;;;;;;9.93;5.28;;;;;;;;;;5027671;28;20185;-84
2021/04/03 08:35:30;;;;;;;8.85;5.43;;;;;;;;;;5041690;28;20178;-83
2021/04/03 08:38:06;;;;;;;9.57;5.60;;;;;;;;;;5030809;28;20202;-83
2021/04/03 08:40:32;;;;;;;11.52;5.53;;;;;;;;;;5045963;28;20213;-82
2021/04/03 08:42:58;;;;;;;9.73;6.35;;;;;;;;;;5031531;28;20278;-84
2021/04/03 08:45:24;;;;;;;10.90;6.07;;;;;;;;;;5039885;28;20190;-85
2021/04/03 08:47:50;;;;;;;16.50;6.50;;;;;;;;;;5037873;28;20934;-85
2021/04/03 08:50:16;;;;;;;13.95;6.30;;;;;;;;;;5054257;28;20543;-87
2021/04/03 08:52:42;;;;;;;13.30;6.13;;;;;;;;;;5037091;28;20340;-84
2021/04/03 08:55:11;;;;;;;13.20;6.50;;;;;;;;;;5036506;28;20213;-86
2021/04/03 08:57:37;;;;;;;18.02;7.47;;;;;;;;;;5039051;28;20480;-83
2021/04/03 09:00:04;;;;;;;14.45;4.78;;;;;;;;;;5040910;28;20182;-81
2021/04/03 09:02:31;;;;;;;7.35;5.00;;;;;;;;;;5047327;28;20204;-83
2021/04/03 09:05:01;;;;;;;14.15;6.47;;;;;;;;;;5051399;28;20170;-83
2021/04/03 09:07:34;;;;;;;12.73;7.55;;;;;;;;;;5042777;28;20181;-85
2021/04/03 09:10:07;;;;;;;17.17;8.05;;;;;;;;;;5040457;28;20269;-84
2021/04/03 09:12:33;;;;;;;15.45;6.25;;;;;;;;;;5041319;28;20186;-84
2021/04/03 09:14:59;;;;;;;16.52;7.13;;;;;;;;;;5037202;28;20689;-83
2021/04/03 09:17:26;;;;;;;15.07;7.70;;;;;;;;;;5039615;28;20194;-85
2021/04/03 09:20:13;;;;;;;13.80;7.57;;;;;;;;;;5037049;28;20484;-84
2021/04/03 09:22:40;;;;;;;11.50;6.30;;;;;;;;;;5039269;28;20220;-84
2021/04/03 09:25:10;;;;;;;6.82;4.82;;;;;;;;;;5037552;28;20191;-87
2021/04/03 09:27:37;;;;;;;15.52;6.05;;;;;;;;;;5055590;28;20178;-84
2021/04/03 09:30:09;;;;;;;8.90;5.68;;;;;;;;;;5028257;28;20184;-84
2021/04/03 09:32:41;;;;;;;20.58;6.80;;;;;;;;;;5041666;28;20194;-84
2021/04/03 09:35:08;;;;;;;6.22;4.82;;;;;;;;;;5042761;28;20269;-81
2021/04/03 09:37:34;;;;;;;8.35;5.13;;;;;;;;;;5032364;28;20265;-83
2021/04/03 09:40:00;;;;;;;13.52;7.50;;;;;;;;;;5029981;28;20485;-83
2021/04/03 09:42:27;;;;;;;16.75;8.35;;;;;;;;;;5040151;28;20182;-83
2021/04/03 09:44:54;;;;;;;19.10;7.88;;;;;;;;;;5039009;28;20676;-81
2021/04/03 09:47:20;;;;;;;11.02;7.88;;;;;;;;;;5042037;28;20197;-83
2021/04/03 09:49:47;;;;;;;21.60;7.10;;;;;;;;;;5045082;28;20182;-82
2021/04/03 09:52:16;;;;;;;14.95;6.55;;;;;;;;;;5040142;28;20182;-81
2021/04/03 09:54:43;;;;;;;16.95;8.10;;;;;;;;;;5036693;28;20217;-87
2021/04/03 09:57:09;;;;;;;11.32;6.60;;;;;;;;;;5040993;28;20221;-85
2021/04/03 09:59:36;;;;;;;18.00;7.43;;;;;;;;;;5032310;28;20293;-84
2021/04/03 10:02:03;;;;;;;13.88;7.00;;;;;;;;;;5056246;28;20493;-86
2021/04/03 10:04:32;;;;;;;16.90;7.80;;;;;;;;;;5053852;28;20185;-84
2021/04/03 10:10:02;;;;;;;11.27;6.75;;;;;;;;;;5038698;28;20195;-88
2021/04/03 10:12:28;;;;;;;16.55;7.78;;;;;;;;;;5036807;28;20591;-83
2021/04/03 10:14:54;;;;;;;12.43;7.07;;;;;;;;;;5039410;28;20240;-86
2021/04/03 10:17:20;;;;;;;13.65;6.28;;;;;;;;;;5055678;28;20681;-85
2021/04/03 10:19:46;;;;;;;18.25;6.65;;;;;;;;;;5044739;28;20205;-84
2021/04/03 10:22:12;;;;;;;12.10;6.95;;;;;;;;;;5038357;28;20245;-86
2021/04/03 10:24:38;;;;;;;15.23;6.63;;;;;;;;;;5053677;28;20185;-82
2021/04/03 10:27:05;;;;;;;11.63;7.72;;;;;;;;;;5038621;28;20190;-84
2021/04/03 10:29:31;;;;;;;11.90;6.03;;;;;;;;;;5043404;28;20232;-79
2021/04/03 10:31:57;;;;;;;10.85;7.40;;;;;;;;;;5043667;28;20175;-85
2021/04/03 10:34:23;;;;;;;12.10;6.75;;;;;;;;;;5048807;28;20273;-82
2021/04/03 10:36:49;;;;;;;12.95;7.38;;;;;;;;;;5037338;28;20202;-84
2021/04/03 10:39:15;;;;;;;14.15;7.43;;;;;;;;;;5055185;28;20175;-84
2021/04/03 10:41:41;;;;;;;12.53;7.10;;;;;;;;;;5047378;28;20235;-82
2021/04/03 10:44:07;;;;;;;15.18;8.68;;;;;;;;;;5042264;28;20536;-85
2021/04/03 10:46:33;;;;;;;12.98;6.20;;;;;;;;;;5047236;28;20277;-85
2021/04/03 10:48:59;;;;;;;15.38;7.75;;;;;;;;;;5032726;28;20254;-87
2021/04/03 10:51:25;;;;;;;18.23;7.45;;;;;;;;;;5057478;28;20185;-84
2021/04/03 10:53:51;;;;;;;17.77;7.85;;;;;;;;;;5040043;28;20201;-83
2021/04/03 10:56:18;;;;;;;8.90;6.57;;;;;;;;;;5047795;28;20216;-83
2021/04/03 10:58:45;;;;;;;11.10;6.45;;;;;;;;;;5035609;28;20254;-81
2021/04/03 11:01:11;;;;;;;11.13;6.10;;;;;;;;;;5040085;28;20230;-82
2021/04/03 11:03:37;;;;;;;11.27;5.85;;;;;;;;;;5043779;28;20174;-84
2021/04/03 11:06:05;;;;;;;12.20;6.80;;;;;;;;;;5059399;28;20203;-82
2021/04/03 11:08:31;;;;;;;14.85;8.45;;;;;;;;;;5058348;28;20426;-82
2021/04/03 11:11:01;;;;;;;17.17;7.35;;;;;;;;;;5053709;28;20166;-86
2021/04/03 11:13:27;;;;;;;13.68;5.40;;;;;;;;;;5053327;28;20181;-82
2021/04/03 11:15:53;;;;;;;7.70;5.23;;;;;;;;;;5055584;28;20213;-83
2021/04/03 11:18:22;;;;;;;12.30;5.27;;;;;;;;;;5058290;28;20460;-85
2021/04/03 11:20:48;;;;;;;7.35;5.38;;;;;;;;;;5043367;28;20860;-84
2021/04/03 11:23:14;;;;;;;9.48;4.70;;;;;;;;;;5038767;28;20182;-81
2021/04/03 11:25:40;;;;;;;8.10;4.72;;;;;;;;;;5041648;28;20209;-84
2021/04/03 11:28:06;;;;;;;18.48;5.88;;;;;;;;;;5060365;28;20184;-81
2021/04/03 11:30:32;;;;;;;10.98;5.07;;;;;;;;;;5045239;28;20223;-86
2021/04/03 11:32:58;;;;;;;8.65;5.30;;;;;;;;;;5059261;28;20186;-79
2021/04/03 11:35:24;;;;;;;12.23;5.75;;;;;;;;;;5046857;28;20196;-84
2021/04/03 11:37:51;;;;;;;9.98;5.68;;;;;;;;;;5042648;28;20205;-84
2021/04/03 11:40:17;;;;;;;13.60;5.30;;;;;;;;;;5053036;28;20265;-87
2021/04/03 11:42:45;;;;;;;14.77;6.75;;;;;;;;;;5045536;28;20182;-86
2021/04/03 11:45:12;;;;;;;16.05;8.10;;;;;;;;;;5042696;28;20182;-88
2021/04/03 11:47:38;;;;;;;10.38;6.20;;;;;;;;;;5042646;28;20204;-80
2021/04/03 11:50:06;;;;;;;10.43;6.35;;;;;;;;;;5043583;28;20201;-87
2021/04/03 11:52:36;;;;;;;12.43;6.20;;;;;;;;;;5041431;28;20217;-89
2021/04/03 11:55:03;;;;;;;10.65;6.13;;;;;;;;;;5037534;28;20181;-86
2021/04/03 11:57:29;;;;;;;12.80;5.90;;;;;;;;;;5058319;28;20271;-81
2021/04/03 11:59:55;;;;;;;17.63;5.85;;;;;;;;;;5041801;28;20191;-83
2021/04/03 12:02:21;;;;;;;14.18;6.25;;;;;;;;;;5058173;28;20690;-86
2021/04/03 12:04:47;;;;;;;12.60;6.03;;;;;;;;;;5047620;28;20590;-83
2021/04/03 12:07:13;;;;;;;9.90;6.27;;;;;;;;;;5041941;28;20205;-81
2021/04/03 12:09:40;;;;;;;11.95;7.57;;;;;;;;;;5041836;28;20471;-84
2021/04/03 12:12:07;;;;;;;12.55;6.72;;;;;;;;;;5042820;28;20186;-84
2021/04/03 12:14:35;;;;;;;13.48;6.60;;;;;;;;;;5031921;28;20186;-83
2021/04/03 12:17:01;;;;;;;10.88;5.18;;;;;;;;;;5041134;28;20201;-86
2021/04/03 12:19:27;;;;;;;19.83;6.47;;;;;;;;;;5043752;28;20186;-81
2021/04/03 12:21:53;;;;;;;10.53;5.77;;;;;;;;;;5039576;28;20192;-85
2021/04/03 12:24:20;;;;;;;11.15;6.07;;;;;;;;;;5040384;28;20442;-82
2021/04/03 12:26:46;;;;;;;13.07;6.10;;;;;;;;;;5039479;28;20186;-84
2021/04/03 12:29:12;;;;;;;13.70;6.63;;;;;;;;;;5050418;28;20199;-84
2021/04/03 12:31:38;;;;;;;12.03;6.40;;;;;;;;;;5039033;28;20216;-87
2021/04/03 12:34:04;;;;;;;11.55;5.85;;;;;;;;;;5041203;28;20519;-87
2021/04/03 12:36:30;;;;;;;9.93;6.43;;;;;;;;;;5058022;28;20308;-85
2021/04/03 12:38:56;;;;;;;13.70;6.95;;;;;;;;;;5037711;28;20178;-83
2021/04/03 12:41:22;;;;;;;12.27;5.95;;;;;;;;;;5030449;28;20184;-89
2021/04/03 12:43:48;;;;;;;11.07;7.37;;;;;;;;;;5047109;28;20226;-85
2021/04/03 12:46:16;;;;;;;11.47;6.67;;;;;;;;;;5035353;28;20452;-89
2021/04/03 12:48:42;;;;;;;11.52;6.30;;;;;;;;;;5039729;28;20495;-90
2021/04/03 12:51:08;;;;;;;12.93;9.68;;;;;;;;;;5053512;28;20183;-87
2021/04/03 12:53:35;;;;;;;8.50;6.70;;;;;;;;;;5046483;28;20174;-82
2021/04/03 12:56:01;;;;;;;18.52;7.10;;;;;;;;;;5042863;28;20189;-83
2021/04/03 12:58:27;;;;;;;13.52;6.50;;;;;;;;;;5039174;28;20722;-84
2021/04/03 13:00:53;;;;;;;9.83;6.43;;;;;;;;;;5054703;28;20186;-87
2021/04/03 13:03:19;;;;;;;15.13;6.90;;;;;;;;;;5036048;28;20458;-85
2021/04/03 13:05:54;;;;;;;8.90;6.70;;;;;;;;;;5032112;28;20523;-86
2021/04/03 13:08:20;;;;;;;9.47;8.27;;;;;;;;;;5029871;28;20433;-81
2021/04/03 13:10:46;;;;;;;9.50;7.03;;;;;;;;;;5031691;28;20444;-83
2021/04/03 13:13:12;;;;;;;11.87;6.80;;;;;;;;;;5034748;28;20501;-83
2021/04/03 13:15:38;;;;;;;16.93;6.90;;;;;;;;;;5038445;28;20441;-82
2021/04/03 13:18:46;;;;;;;7.40;6.23;;;;;;;;;;5030955;28;20471;-86
2021/04/03 13:24:13;;;;;;;11.47;7.07;;;;;;;;;;5020729;28;20422;-80
2021/04/03 13:26:44;;;;;;;12.20;7.00;;;;;;;;;;5030500;28;20493;-80
2021/04/03 13:29:32;;;;;;;;;;;;;;;;;;;;;
2021/04/03 13:32:07;;;;;;;12.20;6.53;;;;;;;;;;5030519;28;20475;-83
2021/04/03 13:34:40;;;;;;;11.30;6.63;;;;;;;;;;5034473;28;20440;-83
2021/04/03 13:37:11;;;;;;;12.67;6.20;;;;;;;;;;5031669;28;20461;-87
2021/04/03 13:39:49;;;;;;;9.17;6.60;;;;;;;;;;5034692;28;20423;-86
2021/04/03 13:42:21;;;;;;;15.77;8.00;;;;;;;;;;5054608;28;20443;-83
2021/04/03 13:44:47;;;;;;;10.67;7.10;;;;;;;;;;5052058;28;20521;-85
2021/04/03 13:47:16;;;;;;;9.10;6.90;;;;;;;;;;5057117;28;20908;-86
2021/04/03 13:49:42;;;;;;;9.33;6.67;;;;;;;;;;5038466;28;20548;-84
2021/04/03 13:52:10;;;;;;;13.13;7.30;;;;;;;;;;5041467;28;20457;-86
2021/04/03 13:54:36;;;;;;;11.57;7.40;;;;;;;;;;5041865;28;20515;-85
2021/04/03 13:57:02;;;;;;;9.27;6.30;;;;;;;;;;5050783;28;20467;-85
2021/04/03 13:59:31;;;;;;;12.18;7.85;;;;;;;;;;5039994;28;20432;-84
2021/04/03 14:01:57;;;;;;;18.15;8.38;;;;;;;;;;5033556;28;20185;-86
2021/04/03 14:04:23;;;;;;;9.07;7.43;;;;;;;;;;5036718;28;20193;-83
2021/04/03 14:06:49;;;;;;;11.95;6.85;;;;;;;;;;5033624;28;20184;-87
2021/04/03 14:09:15;;;;;;;10.77;7.03;;;;;;;;;;5052216;28;20263;-85
2021/04/03 14:11:41;;;;;;;12.98;7.43;;;;;;;;;;5037706;28;20204;-83
2021/04/03 14:14:10;;;;;;;10.98;7.47;;;;;;;;;;5038275;28;20178;-87
2021/04/03 14:16:36;;;;;;;11.35;7.07;;;;;;;;;;5044741;28;20270;-84
2021/04/03 14:19:02;;;;;;;13.70;8.18;;;;;;;;;;5034694;28;20190;-84
2021/04/03 14:21:28;;;;;;;10.38;5.90;;;;;;;;;;5035035;28;20181;-84
2021/04/03 14:23:55;;;;;;;11.52;6.90;;;;;;;;;;5035163;28;20184;-82
2021/04/03 14:26:21;;;;;;;10.38;6.82;;;;;;;;;;5028591;28;20206;-80
2021/04/03 14:28:47;;;;;;;7.70;5.70;;;;;;;;;;5032031;28;20198;-82
2021/04/03 14:31:13;;;;;;;10.13;7.07;;;;;;;;;;5043856;28;20569;-83
2021/04/03 14:33:39;;;;;;;8.48;6.60;;;;;;;;;;5037108;28;20475;-86
2021/04/03 14:36:05;;;;;;;11.60;7.00;;;;;;;;;;5050143;28;20190;-86
2021/04/03 14:38:31;;;;;;;13.45;7.05;;;;;;;;;;5045599;28;20496;-85
2021/04/03 14:40:58;;;;;;;10.05;6.97;;;;;;;;;;5038645;28;20182;-86
2021/04/03 14:43:24;;;;;;;7.88;6.55;;;;;;;;;;5047922;28;20210;-84
2021/04/03 14:45:51;;;;;;;11.63;6.32;;;;;;;;;;5042986;28;20291;-82
2021/04/03 14:48:17;;;;;;;10.60;7.20;;;;;;;;;;5031742;28;20614;-90